Time;durP1;ratioP1;P1;durP2;ratioP2;P2;SDS_P1;SDS_P2;PMS_P1;PMS_P2;Temp;Humidity;BMP_temperature;BMP_pressure;BME280_temperature;BME280_humidity;BME280_pressure;Samples;Min_cycle;Max_cycle;Signal;HPM_P1;HPM_P2
2021/08/16 00:01:33;;;;;;;26.08;13.65;;;17.50;99.90;;;;;;5037232;28;20469;-81
2021/08/16 00:03:59;;;;;;;24.40;12.70;;;17.50;99.90;;;;;;5045047;28;20047;-82
2021/08/16 00:06:24;;;;;;;26.05;13.98;;;17.40;99.90;;;;;;5042437;28;20036;-80
2021/08/16 00:08:51;;;;;;;22.85;13.00;;;17.40;99.90;;;;;;5039337;28;20095;-80
2021/08/16 00:11:17;;;;;;;25.50;13.50;;;17.40;99.90;;;;;;5043627;28;20063;-80
2021/08/16 00:13:43;;;;;;;25.25;11.40;;;17.40;99.90;;;;;;5044664;28;20446;-82
2021/08/16 00:16:09;;;;;;;16.15;8.02;;;17.40;99.90;;;;;;5039600;28;20041;-80
2021/08/16 00:18:35;;;;;;;15.18;7.38;;;17.30;99.90;;;;;;5042804;28;20045;-81
2021/08/16 00:21:02;;;;;;;13.43;5.90;;;17.30;99.90;;;;;;5041473;28;20091;-79
2021/08/16 00:23:28;;;;;;;9.30;4.43;;;17.30;99.90;;;;;;5044149;28;20063;-80
2021/08/16 00:25:54;;;;;;;9.57;4.40;;;17.20;99.90;;;;;;5042105;28;20048;-80
2021/08/16 00:28:20;;;;;;;5.55;3.50;;;17.20;99.90;;;;;;5043440;28;20044;-81
2021/08/16 00:30:47;;;;;;;7.28;3.20;;;17.20;99.90;;;;;;5040352;28;20049;-80
2021/08/16 00:33:12;;;;;;;7.65;3.83;;;17.10;99.90;;;;;;5046001;28;20059;-81
2021/08/16 00:35:38;;;;;;;13.45;4.22;;;17.10;99.90;;;;;;5042618;28;20116;-79
2021/08/16 00:38:04;;;;;;;9.55;3.03;;;17.10;99.90;;;;;;5038731;28;20449;-82
2021/08/16 00:40:31;;;;;;;8.90;3.75;;;17.10;99.90;;;;;;5042086;28;20040;-79
2021/08/16 00:42:57;;;;;;;10.63;3.55;;;17.00;99.90;;;;;;5041106;28;20041;-79
2021/08/16 00:45:25;;;;;;;8.43;3.63;;;17.00;99.90;;;;;;5042511;28;20071;-79
2021/08/16 00:47:53;;;;;;;14.57;4.30;;;17.00;99.90;;;;;;5058168;28;20045;-80
2021/08/16 00:50:19;;;;;;;13.95;4.15;;;17.00;99.90;;;;;;5041342;28;20045;-79
2021/08/16 00:52:44;;;;;;;13.57;4.03;;;17.00;99.90;;;;;;5037810;28;20051;-79
2021/08/16 00:55:12;;;;;;;14.80;4.53;;;17.00;99.90;;;;;;5042392;28;20040;-81
2021/08/16 00:57:39;;;;;;;12.38;4.53;;;17.00;99.90;;;;;;5041145;28;20110;-81
2021/08/16 01:00:06;;;;;;;16.08;5.13;;;17.00;99.90;;;;;;5042533;28;20489;-81
2021/08/16 01:02:33;;;;;;;19.70;5.05;;;17.00;99.90;;;;;;5040215;28;20037;-79
2021/08/16 01:05:07;;;;;;;20.65;5.25;;;17.00;99.90;;;;;;5038562;28;20049;-81
2021/08/16 01:07:34;;;;;;;22.30;6.07;;;17.00;99.90;;;;;;5041777;28;20095;-80
2021/08/16 01:10:02;;;;;;;18.52;5.70;;;17.00;99.90;;;;;;5039850;28;20033;-81
2021/08/16 01:12:32;;;;;;;24.33;5.90;;;17.00;99.90;;;;;;5041304;28;20039;-80
2021/08/16 01:14:59;;;;;;;18.45;5.65;;;17.00;99.90;;;;;;5061574;28;20037;-80
2021/08/16 01:17:24;;;;;;;27.95;5.70;;;17.00;99.90;;;;;;5043903;28;20037;-80
2021/08/16 01:19:50;;;;;;;28.23;5.82;;;17.00;99.90;;;;;;5044622;28;20058;-80
2021/08/16 01:22:17;;;;;;;23.83;5.65;;;17.10;99.90;;;;;;5063369;28;20045;-81
2021/08/16 01:24:43;;;;;;;22.50;5.65;;;17.00;99.90;;;;;;5047676;28;20032;-81
2021/08/16 01:27:11;;;;;;;26.58;6.07;;;17.00;99.90;;;;;;5055842;28;20037;-81
2021/08/16 01:29:38;;;;;;;28.98;6.00;;;17.00;99.90;;;;;;5055101;28;20037;-79
2021/08/16 01:32:05;;;;;;;27.67;6.80;;;16.90;99.90;;;;;;5050900;28;20037;-80
2021/08/16 01:34:31;;;;;;;30.40;6.22;;;17.00;99.90;;;;;;5042399;28;20041;-79
2021/08/16 01:36:58;;;;;;;27.67;6.25;;;17.10;99.90;;;;;;5048453;28;20029;-81
2021/08/16 01:39:25;;;;;;;37.08;6.63;;;17.00;99.90;;;;;;5054918;28;20048;-81
2021/08/16 01:41:51;;;;;;;27.60;5.90;;;17.00;99.90;;;;;;5052046;28;20555;-81
2021/08/16 01:44:17;;;;;;;28.33;6.50;;;17.00;99.90;;;;;;5047459;28;20128;-79
2021/08/16 01:46:44;;;;;;;34.30;7.07;;;17.00;99.90;;;;;;5046825;28;20060;-80
2021/08/16 01:49:11;;;;;;;35.60;7.40;;;17.00;99.90;;;;;;5053522;28;20454;-79
2021/08/16 01:51:39;;;;;;;32.63;7.13;;;17.00;99.90;;;;;;5047776;28;20063;-80
2021/08/16 01:54:09;;;;;;;35.08;7.80;;;17.00;99.90;;;;;;5044029;28;20498;-79
2021/08/16 01:56:35;;;;;;;38.72;7.15;;;17.10;99.90;;;;;;5049380;28;20049;-79
2021/08/16 01:59:03;;;;;;;33.22;7.30;;;17.10;99.90;;;;;;5050118;28;20099;-79
2021/08/16 02:01:28;;;;;;;42.95;8.68;;;17.10;99.90;;;;;;5047724;28;20144;-81
2021/08/16 02:03:54;;;;;;;39.30;7.90;;;17.10;99.90;;;;;;5048318;28;20140;-80
2021/08/16 02:06:21;;;;;;;29.25;7.30;;;17.10;99.90;;;;;;5046838;28;20049;-79
2021/08/16 02:08:47;;;;;;;32.95;8.10;;;17.10;99.90;;;;;;5046120;28;20045;-80
2021/08/16 02:11:13;;;;;;;37.67;8.65;;;17.00;99.90;;;;;;5049879;28;20146;-81
2021/08/16 02:13:39;;;;;;;37.83;7.55;;;17.00;99.90;;;;;;5049419;28;20136;-81
2021/08/16 02:16:05;;;;;;;31.33;7.43;;;17.00;99.90;;;;;;5049492;28;20117;-80
2021/08/16 02:18:31;;;;;;;35.95;7.47;;;17.00;99.90;;;;;;5045870;28;20047;-78
2021/08/16 02:20:57;;;;;;;34.17;8.30;;;17.00;99.90;;;;;;5049143;28;22152;-80
2021/08/16 02:23:24;;;;;;;33.72;8.30;;;17.00;99.90;;;;;;5043611;28;20476;-80
2021/08/16 02:25:50;;;;;;;38.35;8.13;;;17.00;99.90;;;;;;5047674;28;20456;-80
2021/08/16 02:28:16;;;;;;;41.42;8.63;;;17.00;99.90;;;;;;5054057;28;20037;-83
2021/08/16 02:30:47;;;;;;;34.15;8.13;;;17.00;99.90;;;;;;5047868;28;20163;-81
2021/08/16 02:33:15;;;;;;;37.08;8.32;;;17.00;99.90;;;;;;5047490;28;20045;-79
2021/08/16 02:35:43;;;;;;;30.45;7.95;;;17.00;99.90;;;;;;5060464;28;20040;-80
2021/08/16 02:38:10;;;;;;;29.77;7.85;;;17.00;99.90;;;;;;5048000;28;20049;-81
2021/08/16 02:40:36;;;;;;;32.92;8.27;;;17.00;99.90;;;;;;5051749;28;20028;-81
2021/08/16 02:43:02;;;;;;;36.10;8.25;;;17.00;99.90;;;;;;5044543;28;20476;-80
2021/08/16 02:45:28;;;;;;;33.03;8.65;;;17.10;99.90;;;;;;5043776;28;20102;-79
2021/08/16 02:47:55;;;;;;;33.38;7.75;;;17.10;99.90;;;;;;5043275;28;20030;-81
2021/08/16 02:50:21;;;;;;;32.83;8.63;;;17.10;99.90;;;;;;5055399;28;20051;-80
2021/08/16 02:52:47;;;;;;;31.15;7.93;;;17.10;99.90;;;;;;5045946;28;20052;-79
2021/08/16 02:55:13;;;;;;;31.45;8.40;;;17.10;99.90;;;;;;5047736;28;20045;-81
2021/08/16 02:57:39;;;;;;;33.15;8.50;;;17.10;99.90;;;;;;5048467;28;20574;-80
2021/08/16 03:00:07;;;;;;;33.33;8.52;;;17.10;99.90;;;;;;5048309;28;20119;-81
2021/08/16 03:02:33;;;;;;;30.67;8.85;;;17.10;99.90;;;;;;5046426;28;20055;-81
2021/08/16 03:04:58;;;;;;;30.50;8.82;;;17.10;99.90;;;;;;5048187;28;20041;-81
2021/08/16 03:07:24;;;;;;;30.17;9.15;;;17.10;99.90;;;;;;5042119;28;20108;-80
2021/08/16 03:09:51;;;;;;;26.23;8.35;;;17.10;99.90;;;;;;5048453;28;20028;-81
2021/08/16 03:12:18;;;;;;;28.48;8.25;;;17.10;99.90;;;;;;5045475;28;20098;-80
2021/08/16 03:14:45;;;;;;;26.65;8.50;;;17.10;99.90;;;;;;5044184;28;20048;-80
2021/08/16 03:17:11;;;;;;;24.00;7.63;;;17.10;99.90;;;;;;5057550;28;20558;-79
2021/08/16 03:19:37;;;;;;;21.95;8.30;;;17.10;99.90;;;;;;5041821;28;20040;-80
2021/08/16 03:22:03;;;;;;;29.13;8.07;;;17.10;99.90;;;;;;5045853;28;20072;-81
2021/08/16 03:24:32;;;;;;;24.45;8.10;;;17.10;99.90;;;;;;5045392;28;20037;-80
2021/08/16 03:26:58;;;;;;;25.38;8.45;;;17.10;99.90;;;;;;5056176;28;20048;-79
2021/08/16 03:29:25;;;;;;;21.17;7.68;;;17.00;99.90;;;;;;5042947;28;20110;-80
2021/08/16 03:31:51;;;;;;;24.65;7.90;;;17.10;99.90;;;;;;5043069;28;20475;-81
2021/08/16 03:34:17;;;;;;;21.63;8.13;;;17.10;99.90;;;;;;5039480;28;20047;-80
2021/08/16 03:36:43;;;;;;;21.65;7.30;;;17.00;99.90;;;;;;5044417;28;20033;-80
2021/08/16 03:39:09;;;;;;;16.52;7.40;;;17.00;99.90;;;;;;5043535;28;20431;-80
2021/08/16 03:41:35;;;;;;;21.33;7.20;;;17.00;99.90;;;;;;5044641;28;20029;-81
2021/08/16 03:44:02;;;;;;;20.27;6.60;;;17.00;99.90;;;;;;5040948;28;20107;-80
2021/08/16 03:46:28;;;;;;;17.98;6.05;;;17.00;99.90;;;;;;5040814;28;20724;-81
2021/08/16 03:48:54;;;;;;;20.10;7.07;;;17.00;99.90;;;;;;5043099;28;20038;-80
2021/08/16 03:51:19;;;;;;;24.05;6.78;;;16.90;99.90;;;;;;5038394;28;20116;-80
2021/08/16 03:53:45;;;;;;;18.38;6.28;;;16.90;99.90;;;;;;5037944;28;20159;-80
2021/08/16 03:56:11;;;;;;;16.65;5.38;;;16.90;99.90;;;;;;5038765;28;20494;-80
2021/08/16 03:58:40;;;;;;;17.80;6.00;;;16.80;99.90;;;;;;5041941;28;20033;-80
2021/08/16 04:01:06;;;;;;;13.18;5.88;;;16.80;99.90;;;;;;5039125;28;20040;-80
2021/08/16 04:03:32;;;;;;;22.50;6.35;;;16.80;99.90;;;;;;5037989;28;20044;-79
2021/08/16 04:05:58;;;;;;;16.60;5.95;;;16.80;99.90;;;;;;5038673;28;20361;-79
2021/08/16 04:08:24;;;;;;;17.38;5.95;;;16.70;99.90;;;;;;5047465;28;20483;-80
2021/08/16 04:10:50;;;;;;;17.77;6.85;;;16.60;99.90;;;;;;5043053;28;20102;-80
2021/08/16 04:13:16;;;;;;;19.88;6.95;;;16.60;99.90;;;;;;5040302;28;20500;-80
2021/08/16 04:15:42;;;;;;;13.02;6.70;;;16.60;99.90;;;;;;5043600;28;20049;-79
2021/08/16 04:18:08;;;;;;;16.13;6.13;;;16.50;99.90;;;;;;5042770;28;20123;-80
2021/08/16 04:20:34;;;;;;;14.00;6.20;;;16.50;99.90;;;;;;5044976;28;20037;-81
2021/08/16 04:22:59;;;;;;;17.55;6.20;;;16.50;99.90;;;;;;5042123;28;20103;-81
2021/08/16 04:25:25;;;;;;;26.50;6.55;;;16.50;99.90;;;;;;5041959;28;20025;-79
2021/08/16 04:28:00;;;;;;;27.85;6.93;;;16.50;99.90;;;;;;5038718;28;20041;-80
2021/08/16 04:30:26;;;;;;;13.40;5.72;;;16.50;99.90;;;;;;5041482;28;20103;-81
2021/08/16 04:32:53;;;;;;;15.43;5.78;;;16.40;99.90;;;;;;5042473;28;20102;-81
2021/08/16 04:35:19;;;;;;;11.55;5.15;;;16.40;99.90;;;;;;5022882;28;20140;-81
2021/08/16 04:37:45;;;;;;;11.15;5.00;;;16.40;99.90;;;;;;5037456;28;20112;-80
2021/08/16 04:40:13;;;;;;;14.65;4.80;;;16.30;99.90;;;;;;5039794;28;20338;-80
2021/08/16 04:42:40;;;;;;;12.93;5.18;;;16.30;99.90;;;;;;5041448;28;20114;-80
2021/08/16 04:45:10;;;;;;;10.63;5.10;;;16.30;99.90;;;;;;5040129;28;20037;-80
2021/08/16 04:47:38;;;;;;;12.82;4.38;;;16.30;99.90;;;;;;5043956;28;20075;-80
2021/08/16 04:50:04;;;;;;;9.43;4.18;;;16.30;99.90;;;;;;5043078;28;20225;-78
2021/08/16 04:52:33;;;;;;;10.77;3.60;;;16.30;99.90;;;;;;5059929;28;20037;-80
2021/08/16 04:54:59;;;;;;;11.13;3.22;;;16.30;99.90;;;;;;5041033;28;20187;-78
2021/08/16 04:57:37;;;;;;;12.70;3.72;;;16.30;99.90;;;;;;5025894;28;20477;-79
2021/08/16 05:00:07;;;;;;;12.45;3.50;;;16.30;99.90;;;;;;5025848;28;20469;-81
2021/08/16 05:02:34;;;;;;;9.23;3.25;;;16.30;99.90;;;;;;5046707;28;20041;-80
2021/08/16 05:05:10;;;;;;;11.63;3.75;;;16.30;99.90;;;;;;5044000;28;20246;-79
2021/08/16 05:07:45;;;;;;;14.25;3.33;;;16.30;99.90;;;;;;5057597;28;20059;-79
2021/08/16 05:10:11;;;;;;;6.88;2.65;;;16.30;99.90;;;;;;5042442;28;20415;-78
2021/08/16 05:12:38;;;;;;;8.88;3.47;;;16.40;99.90;;;;;;5041341;28;20136;-78
2021/08/16 05:15:04;;;;;;;7.40;3.20;;;16.40;99.90;;;;;;5042833;28;20071;-79
2021/08/16 05:17:34;;;;;;;12.95;3.40;;;16.50;99.90;;;;;;5061493;28;20521;-79
2021/08/16 05:20:02;;;;;;;11.30;2.95;;;16.60;99.90;;;;;;5045285;28;20451;-80
2021/08/16 05:22:31;;;;;;;7.63;3.00;;;16.50;99.90;;;;;;5059769;28;20129;-79
2021/08/16 05:24:57;;;;;;;11.15;3.45;;;16.50;99.90;;;;;;5043978;28;20068;-78
2021/08/16 05:27:43;;;;;;;8.07;3.28;;;16.50;99.90;;;;;;5043620;28;20045;-79
2021/08/16 05:30:09;;;;;;;10.25;3.17;;;16.60;99.90;;;;;;5044015;28;20045;-79
2021/08/16 05:32:39;;;;;;;6.30;3.70;;;16.70;99.90;;;;;;5028521;28;20056;-80
2021/08/16 05:35:06;;;;;;;9.65;3.45;;;16.70;99.90;;;;;;5040249;28;20167;-78
2021/08/16 05:37:33;;;;;;;8.43;3.33;;;16.70;99.90;;;;;;5045761;28;20114;-77
2021/08/16 05:39:58;;;;;;;10.60;3.03;;;16.80;99.90;;;;;;5043166;28;20140;-77
2021/08/16 05:42:24;;;;;;;9.20;3.25;;;16.80;99.90;;;;;;5043590;28;20397;-78
2021/08/16 05:44:50;;;;;;;15.50;3.78;;;16.80;99.90;;;;;;5051244;28;20057;-80
2021/08/16 05:47:16;;;;;;;6.00;3.00;;;16.70;99.90;;;;;;5050868;28;20033;-81
2021/08/16 05:49:43;;;;;;;6.22;2.85;;;16.70;99.90;;;;;;5048134;28;20045;-82
2021/08/16 05:52:10;;;;;;;12.45;3.33;;;16.70;99.90;;;;;;5046207;28;20047;-77
2021/08/16 05:54:37;;;;;;;8.85;3.50;;;16.70;99.90;;;;;;5041963;28;20095;-79
2021/08/16 05:57:04;;;;;;;10.90;3.55;;;16.70;99.90;;;;;;5040650;28;20070;-80
2021/08/16 05:59:30;;;;;;;13.75;3.22;;;16.70;99.90;;;;;;5057478;28;20084;-79
2021/08/16 06:01:56;;;;;;;10.63;3.50;;;16.70;99.90;;;;;;5043661;28;20033;-77
2021/08/16 06:04:22;;;;;;;10.60;3.17;;;16.70;99.90;;;;;;5041650;28;20041;-77
2021/08/16 06:06:48;;;;;;;9.60;3.45;;;16.80;99.90;;;;;;5048733;28;20044;-78
2021/08/16 06:09:13;;;;;;;7.85;3.33;;;16.80;99.90;;;;;;5037723;28;20060;-78
2021/08/16 06:11:39;;;;;;;11.70;3.75;;;16.80;99.90;;;;;;5044471;28;20444;-77
2021/08/16 06:14:05;;;;;;;8.43;3.67;;;16.90;99.90;;;;;;5054389;28;20030;-78
2021/08/16 06:16:31;;;;;;;6.78;3.70;;;16.80;99.90;;;;;;5041026;28;20057;-79
2021/08/16 06:18:57;;;;;;;8.82;3.92;;;16.70;99.90;;;;;;5049578;28;20152;-80
2021/08/16 06:21:22;;;;;;;9.00;4.07;;;16.70;99.90;;;;;;5041103;28;20110;-80
2021/08/16 06:23:48;;;;;;;12.90;3.88;;;16.70;99.90;;;;;;5044466;28;20717;-78
2021/08/16 06:26:14;;;;;;;6.47;3.70;;;16.70;99.90;;;;;;5043799;28;20116;-81
2021/08/16 06:28:40;;;;;;;8.48;3.58;;;16.70;99.90;;;;;;5045146;28;20056;-79
2021/08/16 06:31:07;;;;;;;9.38;3.72;;;16.70;99.90;;;;;;5042062;28;20071;-81
2021/08/16 06:33:37;;;;;;;8.48;3.90;;;16.70;99.90;;;;;;5042205;28;20045;-81
2021/08/16 06:36:05;;;;;;;8.07;3.92;;;16.70;99.90;;;;;;5040471;28;20044;-79
2021/08/16 06:38:32;;;;;;;8.30;3.92;;;16.60;99.90;;;;;;5055482;28;20449;-79
2021/08/16 06:41:00;;;;;;;8.05;3.60;;;16.60;99.90;;;;;;5046532;28;20048;-79
2021/08/16 06:43:27;;;;;;;10.02;3.47;;;16.60;99.90;;;;;;5044220;28;20049;-80
2021/08/16 06:45:53;;;;;;;4.25;3.00;;;16.50;99.90;;;;;;5043159;28;20029;-80
2021/08/16 06:48:19;;;;;;;8.13;3.15;;;16.50;99.90;;;;;;5040690;28;20128;-81
2021/08/16 06:50:46;;;;;;;5.80;2.78;;;16.50;99.90;;;;;;5040777;28;20148;-78
2021/08/16 06:53:13;;;;;;;7.10;2.90;;;16.50;99.90;;;;;;5039277;28;20064;-77
2021/08/16 06:55:44;;;;;;;5.05;2.80;;;16.60;99.90;;;;;;5042250;28;20079;-77
2021/08/16 06:58:10;;;;;;;8.50;2.80;;;16.50;99.90;;;;;;5043772;28;20036;-80
2021/08/16 07:00:40;;;;;;;6.63;2.72;;;16.60;99.90;;;;;;5039727;28;20060;-78
2021/08/16 07:03:06;;;;;;;5.45;2.38;;;16.70;99.90;;;;;;5042653;28;20040;-77
2021/08/16 07:05:32;;;;;;;3.58;2.00;;;16.70;99.90;;;;;;5060139;28;20055;-76
2021/08/16 07:07:58;;;;;;;6.55;2.58;;;16.70;99.90;;;;;;5042440;28;20116;-76
2021/08/16 07:10:24;;;;;;;7.35;2.60;;;16.70;99.90;;;;;;5041595;28;20453;-79
2021/08/16 07:12:49;;;;;;;5.15;2.20;;;16.70;99.90;;;;;;5041247;28;20049;-78
2021/08/16 07:15:15;;;;;;;7.47;2.40;;;16.60;99.90;;;;;;5044663;28;20127;-80
2021/08/16 07:17:41;;;;;;;8.15;2.65;;;16.60;99.90;;;;;;5043635;28;20033;-78
2021/08/16 07:20:09;;;;;;;7.90;2.80;;;16.60;99.90;;;;;;5039423;28;20069;-78
2021/08/16 07:22:36;;;;;;;6.65;2.42;;;16.50;99.90;;;;;;5025681;28;20037;-78
2021/08/16 07:25:02;;;;;;;7.70;2.47;;;16.50;99.90;;;;;;5038927;28;20056;-79
2021/08/16 07:27:28;;;;;;;7.47;2.38;;;16.60;99.90;;;;;;5055646;28;20048;-77
2021/08/16 07:29:54;;;;;;;7.40;2.38;;;16.70;99.90;;;;;;5039591;28;20049;-79
2021/08/16 07:32:20;;;;;;;8.43;2.30;;;16.90;99.90;;;;;;5041390;28;20033;-80
2021/08/16 07:34:45;;;;;;;7.82;2.60;;;17.10;99.90;;;;;;5055362;28;20056;-76
2021/08/16 07:37:12;;;;;;;7.30;2.60;;;17.20;99.90;;;;;;5052069;28;20045;-77
2021/08/16 07:39:39;;;;;;;7.40;2.33;;;17.30;99.90;;;;;;5049140;28;20051;-79
2021/08/16 07:42:05;;;;;;;12.35;2.75;;;17.30;99.90;;;;;;5052582;28;20029;-78
2021/08/16 07:44:30;;;;;;;9.02;2.70;;;17.40;99.90;;;;;;5049930;28;20084;-79
2021/08/16 07:46:59;;;;;;;10.57;2.60;;;17.50;99.90;;;;;;5048960;28;20052;-79
2021/08/16 07:49:31;;;;;;;6.85;1.95;;;17.60;99.90;;;;;;5049967;28;20033;-75
2021/08/16 07:51:58;;;;;;;7.43;1.88;;;17.70;99.90;;;;;;5051508;28;20140;-78
2021/08/16 07:54:24;;;;;;;8.52;2.20;;;17.70;99.90;;;;;;5064212;28;20106;-78
2021/08/16 07:56:51;;;;;;;9.00;2.33;;;17.70;99.90;;;;;;5050191;28;20424;-80
2021/08/16 07:59:18;;;;;;;7.47;2.00;;;17.70;99.90;;;;;;5050078;28;20488;-77
2021/08/16 08:01:44;;;;;;;7.45;2.03;;;17.80;99.90;;;;;;5046183;28;20037;-79
2021/08/16 08:04:10;;;;;;;4.20;1.50;;;17.80;99.90;;;;;;5051306;28;20045;-78
2021/08/16 08:06:36;;;;;;;6.72;1.92;;;17.80;99.90;;;;;;5042701;28;20383;-81
2021/08/16 08:09:03;;;;;;;9.45;1.85;;;17.90;99.90;;;;;;5046552;28;20494;-78
2021/08/16 08:11:28;;;;;;;5.78;1.88;;;17.90;99.90;;;;;;5047337;28;20159;-78
2021/08/16 08:13:55;;;;;;;8.18;2.50;;;17.80;99.90;;;;;;5042746;28;20048;-79
2021/08/16 08:16:21;;;;;;;8.43;1.90;;;17.80;99.90;;;;;;5050661;28;20082;-82
2021/08/16 08:18:47;;;;;;;10.45;2.28;;;17.80;99.90;;;;;;5042922;28;20029;-81
2021/08/16 08:21:13;;;;;;;9.30;2.20;;;17.60;99.90;;;;;;5042688;28;20036;-78
2021/08/16 08:23:39;;;;;;;10.95;2.35;;;17.60;99.90;;;;;;5043653;28;20042;-78
2021/08/16 08:26:04;;;;;;;9.68;2.50;;;17.50;99.90;;;;;;5043801;28;20045;-78
2021/08/16 08:28:31;;;;;;;8.73;2.42;;;17.60;99.90;;;;;;5045765;28;20072;-82
2021/08/16 08:30:56;;;;;;;8.75;2.58;;;17.80;99.90;;;;;;5047446;28;20103;-75
2021/08/16 08:33:23;;;;;;;10.50;2.65;;;17.90;99.90;;;;;;5048125;28;20048;-81
2021/08/16 08:35:50;;;;;;;6.65;2.42;;;18.00;99.90;;;;;;5066051;28;20044;-81
2021/08/16 08:38:17;;;;;;;16.25;2.70;;;18.10;99.90;;;;;;5051268;28;20057;-76
2021/08/16 08:40:44;;;;;;;11.20;2.88;;;18.00;99.90;;;;;;5044743;28;20045;-80
2021/08/16 08:43:11;;;;;;;6.57;2.40;;;18.10;99.90;;;;;;5047078;28;20449;-79
2021/08/16 08:45:39;;;;;;;11.18;3.05;;;18.20;99.90;;;;;;5042017;28;20049;-82
2021/08/16 08:48:05;;;;;;;9.07;2.58;;;18.40;99.90;;;;;;5050903;28;20060;-78
2021/08/16 08:50:31;;;;;;;10.20;2.85;;;18.40;99.90;;;;;;5047776;28;20577;-75
2021/08/16 08:53:02;;;;;;;11.88;2.67;;;18.60;99.90;;;;;;5038316;28;20037;-74
2021/08/16 08:55:29;;;;;;;11.38;2.60;;;18.60;99.90;;;;;;5043683;28;20045;-75
2021/08/16 08:57:58;;;;;;;12.38;2.63;;;18.60;99.90;;;;;;5046328;28;20047;-78
2021/08/16 09:00:24;;;;;;;11.93;3.13;;;18.40;99.90;;;;;;5040918;28;20029;-75
2021/08/16 09:02:56;;;;;;;11.05;3.30;;;18.20;99.90;;;;;;5046471;28;20479;-76
2021/08/16 09:05:22;;;;;;;14.02;2.92;;;18.20;99.90;;;;;;5041778;28;20129;-76
2021/08/16 09:07:48;;;;;;;14.27;2.85;;;18.20;99.90;;;;;;5040414;28;20377;-76
2021/08/16 09:10:15;;;;;;;12.38;2.72;;;18.20;99.90;;;;;;5058528;28;20045;-76
2021/08/16 09:12:41;;;;;;;9.60;2.10;;;18.20;99.90;;;;;;5046409;28;20048;-76
2021/08/16 09:15:18;;;;;;;6.85;1.88;;;18.40;99.90;;;;;;5055224;28;20083;-77
2021/08/16 09:17:44;;;;;;;8.25;2.22;;;18.50;99.90;;;;;;5043832;28;20051;-80
2021/08/16 09:20:34;;;;;;;7.03;1.98;;;18.40;99.90;;;;;;5058665;28;20055;-81
2021/08/16 09:23:02;;;;;;;6.03;1.90;;;18.40;99.90;;;;;;5045149;28;20041;-78
2021/08/16 09:25:33;;;;;;;8.10;2.22;;;18.50;99.90;;;;;;5043939;28;20037;-77
2021/08/16 09:27:59;;;;;;;8.48;2.17;;;18.40;99.90;;;;;;5045389;28;20037;-76
2021/08/16 09:30:33;;;;;;;8.55;1.92;;;17.80;99.90;;;;;;5043388;28;20524;-80
2021/08/16 09:33:13;;;;;;;6.77;2.00;;;17.40;99.90;;;;;;5039665;28;20048;-79
2021/08/16 09:35:56;;;;;;;5.35;1.63;;;16.90;99.90;;;;;;5041015;28;20381;-79
2021/08/16 09:38:36;;;;;;;8.55;2.08;;;16.50;99.90;;;;;;5043987;28;20536;-77
2021/08/16 09:41:06;;;;;;;7.30;1.73;;;16.40;99.90;;;;;;5042888;28;20116;-80
2021/08/16 09:43:32;;;;;;;11.85;1.92;;;16.40;99.90;;;;;;5063404;28;20040;-79
2021/08/16 09:46:00;;;;;;;14.35;2.30;;;16.60;99.90;;;;;;5043166;28;20148;-76
2021/08/16 09:48:26;;;;;;;5.90;1.80;;;16.90;99.90;;;;;;5043758;28;20468;-79
2021/08/16 09:50:56;;;;;;;6.95;1.75;;;16.70;99.90;;;;;;5047219;28;20036;-78
2021/08/16 09:53:24;;;;;;;5.28;1.60;;;16.80;99.90;;;;;;5057948;28;20120;-79
2021/08/16 09:55:52;;;;;;;7.68;1.60;;;16.80;99.90;;;;;;5046011;28;20037;-78
2021/08/16 09:58:19;;;;;;;9.65;2.00;;;16.70;99.90;;;;;;5046623;28;20041;-77
2021/08/16 10:00:52;;;;;;;8.23;1.95;;;16.50;99.90;;;;;;5041688;28;20078;-78
2021/08/16 10:03:18;;;;;;;7.63;1.98;;;16.40;99.90;;;;;;5048825;28;20052;-77
2021/08/16 10:05:47;;;;;;;8.98;2.00;;;16.40;99.90;;;;;;5045885;28;20138;-79
2021/08/16 10:08:19;;;;;;;11.32;2.47;;;16.50;99.90;;;;;;5042943;28;20075;-77
2021/08/16 10:10:45;;;;;;;7.57;2.30;;;16.70;99.90;;;;;;5040140;28;20037;-78
2021/08/16 10:13:14;;;;;;;7.07;2.08;;;16.70;99.90;;;;;;5043740;28;20041;-80
2021/08/16 10:15:43;;;;;;;12.25;2.47;;;17.20;99.90;;;;;;5045681;28;20361;-77
2021/08/16 10:18:12;;;;;;;10.82;2.60;;;17.10;99.90;;;;;;5043830;28;20075;-78
2021/08/16 10:20:38;;;;;;;9.13;2.70;;;17.20;99.90;;;;;;5053002;28;20041;-78
2021/08/16 10:23:16;;;;;;;12.57;2.88;;;17.10;99.90;;;;;;5045521;28;20041;-77
2021/08/16 10:25:46;;;;;;;8.60;1.85;;;17.30;99.90;;;;;;5040899;28;20095;-77
2021/08/16 10:28:27;;;;;;;8.88;2.67;;;17.40;99.90;;;;;;5042613;28;20134;-80
2021/08/16 10:30:54;;;;;;;14.40;3.05;;;17.30;99.90;;;;;;5038689;28;20124;-80
2021/08/16 10:33:20;;;;;;;12.77;3.00;;;17.40;99.90;;;;;;5039898;28;20037;-82
2021/08/16 10:35:49;;;;;;;14.10;3.30;;;17.50;99.90;;;;;;5043557;28;20037;-74
2021/08/16 10:38:16;;;;;;;12.65;3.17;;;17.70;99.90;;;;;;5045254;28;20630;-80
2021/08/16 10:40:48;;;;;;;14.20;3.08;;;17.90;99.90;;;;;;5042690;28;20041;-78
2021/08/16 10:43:15;;;;;;;12.80;3.17;;;17.90;99.90;;;;;;5042603;28;20041;-79
2021/08/16 10:45:47;;;;;;;10.20;3.35;;;17.90;99.90;;;;;;5042780;28;20040;-81
2021/08/16 10:48:33;;;;;;;13.35;2.60;;;18.10;99.90;;;;;;5053589;28;20384;-77
2021/08/16 10:51:08;;;;;;;13.00;2.90;;;18.20;99.90;;;;;;5059953;28;20088;-77
2021/08/16 10:54:21;;;;;;;16.27;3.15;;;18.40;99.90;;;;;;5036417;28;20400;-81
2021/08/16 10:56:52;;;;;;;14.05;2.83;;;18.70;99.90;;;;;;5008907;28;20034;-79
2021/08/16 10:59:24;;;;;;;14.30;3.10;;;18.80;99.90;;;;;;4992182;28;20429;-79
2021/08/16 11:01:50;;;;;;;12.93;3.30;;;18.70;99.90;;;;;;5001297;28;20497;-79
2021/08/16 11:04:35;;;;;;;6.82;2.35;;;18.90;99.90;;;;;;5021470;28;20137;-79
2021/08/16 11:07:05;;;;;;;10.60;2.38;;;18.80;99.90;;;;;;5005987;28;20038;-78
2021/08/16 11:09:34;;;;;;;11.45;2.75;;;18.90;99.90;;;;;;5014124;28;20042;-82
2021/08/16 11:12:09;;;;;;;10.93;2.85;;;19.00;99.90;;;;;;5013193;28;20042;-78
2021/08/16 11:14:40;;;;;;;11.50;2.67;;;19.10;99.90;;;;;;5018129;28;20053;-81
2021/08/16 11:17:09;;;;;;;12.38;2.63;;;19.00;99.90;;;;;;5009870;28;20462;-80
2021/08/16 11:19:47;;;;;;;10.05;2.80;;;18.80;99.90;;;;;;4995782;28;20038;-76
2021/08/16 11:22:15;;;;;;;13.55;2.15;;;18.90;99.90;;;;;;4983964;28;20109;-83
2021/08/16 11:24:43;;;;;;;11.50;2.95;;;18.80;99.90;;;;;;5015502;28;20110;-79
2021/08/16 11:27:11;;;;;;;12.23;2.80;;;19.30;99.90;;;;;;5010556;28;20049;-79
2021/08/16 11:29:38;;;;;;;15.48;3.13;;;19.10;99.90;;;;;;5005970;28;20045;-78
2021/08/16 11:32:05;;;;;;;11.20;3.03;;;19.30;99.90;;;;;;5061847;28;20049;-79
2021/08/16 11:34:50;;;;;;;13.68;2.67;;;19.20;99.90;;;;;;5043810;28;20503;-84
2021/08/16 11:37:18;;;;;;;11.13;2.50;;;19.00;99.90;;;;;;5058418;28;20073;-80
2021/08/16 11:39:51;;;;;;;10.88;2.97;;;18.70;99.90;;;;;;5048633;28;20063;-78
2021/08/16 11:42:19;;;;;;;17.50;3.38;;;18.90;99.90;;;;;;5055088;28;20392;-79
2021/08/16 11:45:00;;;;;;;10.15;2.90;;;19.10;99.90;;;;;;5055156;28;20065;-80
2021/08/16 11:47:33;;;;;;;17.40;2.90;;;19.40;99.90;;;;;;5040683;28;20526;-77
2021/08/16 11:50:06;;;;;;;10.73;2.42;;;19.70;99.90;;;;;;5048131;28;20058;-79
2021/08/16 11:52:35;;;;;;;14.93;3.10;;;20.00;99.90;;;;;;5053358;28;20040;-79
2021/08/16 11:55:05;;;;;;;8.43;2.55;;;19.90;99.90;;;;;;5070312;28;20128;-80
2021/08/16 11:57:32;;;;;;;10.93;2.75;;;19.80;99.90;;;;;;5057135;28;20049;-82
2021/08/16 11:59:58;;;;;;;13.20;2.90;;;19.40;99.90;;;;;;5058828;28;20064;-82
2021/08/16 12:02:30;;;;;;;12.48;2.38;;;19.20;99.90;;;;;;5047210;28;20045;-83
2021/08/16 12:04:58;;;;;;;9.48;2.53;;;19.20;99.90;;;;;;5044739;28;20433;-79
2021/08/16 12:07:26;;;;;;;13.82;2.63;;;19.20;99.90;;;;;;5039176;28;20037;-80
2021/08/16 12:09:53;;;;;;;10.50;2.25;;;19.40;99.90;;;;;;5038898;28;20469;-81
2021/08/16 12:12:21;;;;;;;24.02;2.72;;;19.40;99.90;;;;;;5043434;28;20408;-79
2021/08/16 12:14:58;;;;;;;9.48;2.50;;;19.30;99.90;;;;;;5041715;28;20771;-78
2021/08/16 12:17:24;;;;;;;11.57;2.22;;;19.50;99.90;;;;;;5033591;28;20059;-81
2021/08/16 12:20:06;;;;;;;13.40;2.75;;;19.60;99.90;;;;;;5041830;28;20067;-79
2021/08/16 12:22:33;;;;;;;8.88;2.58;;;19.40;99.90;;;;;;5040649;28;20025;-79
2021/08/16 12:25:03;;;;;;;11.32;2.47;;;19.30;99.90;;;;;;5043541;28;20116;-82
2021/08/16 12:27:29;;;;;;;12.10;2.40;;;19.30;99.90;;;;;;5040724;28;20034;-82
2021/08/16 12:29:55;;;;;;;7.15;2.10;;;19.60;99.90;;;;;;5052805;28;20053;-80
2021/08/16 12:32:26;;;;;;;19.38;2.55;;;19.70;99.90;;;;;;5060195;28;20053;-83
2021/08/16 12:34:52;;;;;;;7.63;2.05;;;19.50;99.90;;;;;;5058451;28;20057;-81
2021/08/16 12:37:36;;;;;;;10.85;2.35;;;19.40;99.90;;;;;;5041404;28;20091;-78
2021/08/16 12:40:21;;;;;;;14.52;2.42;;;19.70;99.90;;;;;;5042706;28;20476;-79
2021/08/16 12:43:13;;;;;;;10.15;2.22;;;19.90;99.90;;;;;;5038869;28;20398;-81
2021/08/16 12:45:38;;;;;;;10.13;1.90;;;19.60;99.90;;;;;;5041596;28;20049;-80